createdAt,value
2022-12-14T00:02:22.306Z,133.00
2022-12-14T00:04:56.539Z,138.77
2022-12-14T00:07:34.772Z,128.27
2022-12-14T00:10:08.849Z,143.73
2022-12-14T00:12:43.435Z,156.67
2022-12-14T00:15:17.862Z,128.97
2022-12-14T00:17:51.997Z,133.70
2022-12-14T00:20:26.489Z,140.47
2022-12-14T00:23:02.216Z,140.33
2022-12-14T00:25:35.948Z,120.37
2022-12-14T00:28:10.467Z,134.80
2022-12-14T00:30:44.368Z,130.83
2022-12-14T00:33:18.341Z,125.40
2022-12-14T00:35:52.640Z,127.67
2022-12-14T00:38:28.953Z,140.53
2022-12-14T00:41:03.883Z,123.23
2022-12-14T00:43:38.033Z,139.77
2022-12-14T00:46:12.235Z,127.57
2022-12-14T00:48:47.054Z,125.27
2022-12-14T00:51:20.818Z,122.23
2022-12-14T00:53:57.734Z,120.53
2022-12-14T00:56:32.019Z,121.53
2022-12-14T00:59:06.232Z,116.83
2022-12-14T01:01:40.952Z,128.87
2022-12-14T01:04:26.185Z,145.53
2022-12-14T01:07:00.317Z,126.90
2022-12-14T01:09:38.624Z,118.93
2022-12-14T01:12:13.591Z,125.43
2022-12-14T01:14:48.044Z,130.87
2022-12-14T01:17:22.392Z,123.60
2022-12-14T01:19:57.020Z,112.50
2022-12-14T01:22:32.091Z,114.33
2022-12-14T01:25:08.665Z,114.10
2022-12-14T01:27:42.857Z,116.73
2022-12-14T01:30:18.260Z,135.47
2022-12-14T01:32:53.405Z,124.33
2022-12-14T01:35:27.489Z,125.53
2022-12-14T01:38:02.855Z,123.83
2022-12-14T01:40:39.083Z,126.63
2022-12-14T01:43:18.448Z,108.43
2022-12-14T01:45:52.578Z,121.20
2022-12-14T01:48:27.099Z,122.57
2022-12-14T01:51:00.872Z,125.90
2022-12-14T01:53:35.161Z,119.10
2022-12-14T01:56:11.522Z,127.60
2022-12-14T01:58:45.678Z,122.50
2022-12-14T02:01:20.769Z,124.03
2022-12-14T02:03:57.604Z,124.00
2022-12-14T02:06:36.844Z,115.93
2022-12-14T02:09:13.916Z,130.77
2022-12-14T02:12:04.136Z,116.43
2022-12-14T02:14:38.940Z,124.97
2022-12-14T02:17:15.199Z,133.83
2022-12-14T02:19:50.925Z,122.83
2022-12-14T02:22:59.299Z,121.63
2022-12-14T02:26:04.551Z,121.20
2022-12-14T02:29:12.627Z,119.80
2022-12-14T02:31:58.234Z,131.23
2022-12-14T02:34:40.217Z,120.33
2022-12-14T02:37:21.054Z,126.77
2022-12-14T02:40:04.347Z,131.63
2022-12-14T02:42:47.159Z,118.80
2022-12-14T02:45:28.086Z,126.30
2022-12-14T02:48:08.663Z,136.03
2022-12-14T02:50:51.565Z,126.57
2022-12-14T02:53:33.285Z,131.37
2022-12-14T02:56:11.431Z,139.13
2022-12-14T02:58:50.403Z,125.77
2022-12-14T03:01:27.206Z,119.63
2022-12-14T03:04:04.594Z,115.20
2022-12-14T03:06:39.176Z,125.07
2022-12-14T03:09:18.089Z,129.30
2022-12-14T03:11:56.812Z,124.77
2022-12-14T03:14:34.612Z,130.63
2022-12-14T03:17:19.216Z,114.13
2022-12-14T03:20:00.232Z,120.17
2022-12-14T03:22:41.802Z,130.93
2022-12-14T03:25:23.251Z,130.20
2022-12-14T03:28:02.005Z,124.87
2022-12-14T03:30:59.456Z,134.10
2022-12-14T03:33:33.696Z,120.33
2022-12-14T03:36:14.195Z,121.03
2022-12-14T03:38:51.219Z,135.10
2022-12-14T03:41:33.742Z,141.77
2022-12-14T03:44:19.747Z,117.57
2022-12-14T03:47:00.624Z,128.33
2022-12-14T03:49:47.505Z,116.47
2022-12-14T03:52:33.517Z,126.03
2022-12-14T03:55:15.049Z,126.63
2022-12-14T03:58:03.072Z,126.37
2022-12-14T04:00:45.646Z,123.80
2022-12-14T04:03:33.658Z,131.87
2022-12-14T04:06:15.940Z,123.37
2022-12-14T04:09:01.223Z,144.43
2022-12-14T04:11:59.997Z,134.97
2022-12-14T04:14:55.570Z,134.40
2022-12-14T04:17:53.533Z,127.77
2022-12-14T04:20:35.094Z,134.23
2022-12-14T04:23:16.829Z,141.13
2022-12-14T04:26:08.770Z,118.57
2022-12-14T04:29:03.425Z,134.87
2022-12-14T04:31:42.198Z,124.97
2022-12-14T04:34:21.095Z,126.77
2022-12-14T04:37:02.518Z,133.13
2022-12-14T04:39:45.375Z,115.57
2022-12-14T04:42:27.556Z,123.53
2022-12-14T04:45:12.720Z,129.87
2022-12-14T04:47:54.029Z,152.93
2022-12-14T04:50:34.314Z,127.03
2022-12-14T04:53:17.645Z,121.80
2022-12-14T04:55:59.677Z,130.87
2022-12-14T04:58:39.173Z,121.13
2022-12-14T05:01:33.134Z,125.33
2022-12-14T05:04:18.688Z,112.03
2022-12-14T05:07:02.255Z,116.53
2022-12-14T05:09:42.808Z,117.30
2022-12-14T05:12:24.547Z,108.67
2022-12-14T05:15:08.579Z,116.33
2022-12-14T05:17:45.736Z,99.83
2022-12-14T05:20:24.903Z,115.80
2022-12-14T05:22:59.886Z,97.50
2022-12-14T05:25:34.565Z,103.57
2022-12-14T05:28:09.955Z,104.00
2022-12-14T05:30:48.935Z,105.97
2022-12-14T05:33:33.246Z,109.40
2022-12-14T05:36:08.161Z,125.27
2022-12-14T05:38:43.660Z,115.13
2022-12-14T05:41:20.588Z,125.10
2022-12-14T05:43:56.438Z,127.83
2022-12-14T05:46:33.304Z,110.03
2022-12-14T05:49:09.293Z,116.47
2022-12-14T05:51:44.200Z,109.20
2022-12-14T05:54:20.624Z,125.30
2022-12-14T05:56:55.215Z,119.07
2022-12-14T05:59:30.087Z,126.83
2022-12-14T06:02:07.167Z,109.73
2022-12-14T06:04:43.042Z,110.57
2022-12-14T06:07:17.447Z,115.23
2022-12-14T06:09:53.021Z,113.80
2022-12-14T06:12:28.151Z,127.97
2022-12-14T06:15:02.767Z,111.57
2022-12-14T06:17:39.688Z,99.30
2022-12-14T06:20:14.613Z,112.83
2022-12-14T06:22:50.035Z,106.17
2022-12-14T06:25:25.567Z,104.37
2022-12-14T06:27:59.537Z,99.67
2022-12-14T06:30:34.656Z,114.40
2022-12-14T06:33:13.120Z,102.67
2022-12-14T06:35:49.449Z,105.37
2022-12-14T06:38:24.002Z,109.73
2022-12-14T06:40:58.978Z,103.73
2022-12-14T06:43:33.214Z,109.07
2022-12-14T06:46:15.143Z,107.27
2022-12-14T06:48:55.238Z,115.23
2022-12-14T06:51:30.266Z,102.57
2022-12-14T06:54:05.024Z,113.97
2022-12-14T06:56:39.939Z,109.63
2022-12-14T06:59:14.883Z,103.93
2022-12-14T07:01:50.656Z,101.33
2022-12-14T07:04:27.206Z,106.63
2022-12-14T07:07:02.226Z,109.77
2022-12-14T07:09:36.002Z,94.97
2022-12-14T07:12:10.064Z,93.23
2022-12-14T07:14:44.876Z,99.80
2022-12-14T07:17:20.317Z,104.43
2022-12-14T07:19:57.438Z,99.20
2022-12-14T07:22:31.943Z,101.57
2022-12-14T07:25:06.570Z,103.10
2022-12-14T07:27:41.494Z,101.87
2022-12-14T07:30:20.226Z,95.73
2022-12-14T07:32:54.221Z,100.83
2022-12-14T07:35:30.565Z,100.50
2022-12-14T07:38:05.297Z,108.37
2022-12-14T07:40:40.243Z,111.93
2022-12-14T07:43:14.617Z,112.40
2022-12-14T07:45:48.807Z,105.83
2022-12-14T07:48:22.708Z,109.27
2022-12-14T07:51:00.649Z,100.17
2022-12-14T07:53:35.209Z,104.73
2022-12-14T07:56:10.715Z,107.00
2022-12-14T07:58:44.934Z,96.20
2022-12-14T08:01:20.275Z,102.17
2022-12-14T08:03:56.189Z,99.53
2022-12-14T08:06:33.823Z,91.40
2022-12-14T08:09:09.163Z,109.10
2022-12-14T08:11:44.274Z,122.30
2022-12-14T08:14:21.894Z,103.67
2022-12-14T08:16:56.924Z,99.20
2022-12-14T08:19:31.542Z,100.57
2022-12-14T08:22:08.620Z,96.07
2022-12-14T08:24:43.076Z,102.77
2022-12-14T08:27:24.546Z,111.20
2022-12-14T08:29:59.625Z,123.07
2022-12-14T08:32:35.260Z,107.33
2022-12-14T08:35:10.440Z,109.50
2022-12-14T08:37:47.988Z,100.33
2022-12-14T08:40:22.608Z,99.87
2022-12-14T08:42:57.136Z,102.07
2022-12-14T08:45:32.103Z,99.63
2022-12-14T08:48:06.720Z,106.57
2022-12-14T08:50:40.829Z,100.47
2022-12-14T08:53:17.292Z,99.70
2022-12-14T08:55:52.060Z,99.93
2022-12-14T08:58:27.685Z,98.03
2022-12-14T09:01:13.803Z,122.17
2022-12-14T09:03:50.729Z,103.40
2022-12-14T09:06:29.154Z,112.50
2022-12-14T09:09:06.404Z,111.93
2022-12-14T09:11:43.335Z,103.43
2022-12-14T09:14:17.646Z,104.43
2022-12-14T09:16:52.472Z,110.00
2022-12-14T09:19:27.547Z,110.17
2022-12-14T09:22:02.244Z,105.40
2022-12-14T09:24:40.036Z,105.20
2022-12-14T09:27:14.710Z,113.73
2022-12-14T09:29:52.591Z,111.97
2022-12-14T09:32:30.389Z,107.50
2022-12-14T09:35:07.908Z,101.43
2022-12-14T09:37:43.808Z,113.60
2022-12-14T09:40:21.718Z,112.57
2022-12-14T09:43:02.931Z,102.70
2022-12-14T09:45:40.934Z,105.70
2022-12-14T09:48:21.964Z,107.30
2022-12-14T09:50:58.280Z,123.10
2022-12-14T09:53:34.368Z,114.07
2022-12-14T09:56:22.325Z,109.30
2022-12-14T09:59:00.785Z,121.57
2022-12-14T10:05:18.841Z,112.70
2022-12-14T10:08:03.025Z,113.23
2022-12-14T10:10:47.911Z,117.23
2022-12-14T10:13:37.530Z,120.87
2022-12-14T10:16:22.550Z,109.70
2022-12-14T10:19:13.693Z,101.87
2022-12-14T10:21:54.432Z,112.83
2022-12-14T10:24:35.354Z,111.20
2022-12-14T10:27:15.386Z,115.10
2022-12-14T10:29:56.238Z,119.53
2022-12-14T10:32:36.424Z,118.37
2022-12-14T10:35:32.296Z,132.10
2022-12-14T10:38:11.552Z,121.47
2022-12-14T10:40:53.627Z,132.33
2022-12-14T10:43:48.940Z,134.10
2022-12-14T10:46:33.968Z,138.60
2022-12-14T10:49:16.407Z,135.77
2022-12-14T10:51:55.190Z,136.87
2022-12-14T10:54:35.668Z,131.53
2022-12-14T10:57:11.600Z,140.50
2022-12-14T11:00:05.750Z,129.57
2022-12-14T11:02:49.994Z,128.10
2022-12-14T11:05:41.275Z,136.80
2022-12-14T11:08:38.096Z,146.53
2022-12-14T11:11:20.394Z,143.03
2022-12-14T11:14:02.491Z,141.20
2022-12-14T11:16:45.552Z,140.70
2022-12-14T11:19:29.123Z,137.90
2022-12-14T11:22:22.443Z,144.00
2022-12-14T11:24:59.733Z,142.73
2022-12-14T11:27:38.154Z,148.80
2022-12-14T11:30:24.139Z,148.17
2022-12-14T11:33:00.178Z,145.70
2022-12-14T11:36:00.146Z,142.67
2022-12-14T11:38:38.622Z,146.77
2022-12-14T11:41:26.996Z,144.00
2022-12-14T11:44:28.930Z,154.13
2022-12-14T11:47:12.084Z,141.00
2022-12-14T11:49:53.891Z,141.27
2022-12-14T11:52:50.048Z,139.33
2022-12-14T11:55:33.838Z,138.07
2022-12-14T11:58:19.105Z,140.47
2022-12-14T12:01:02.461Z,137.37
2022-12-14T12:03:45.058Z,143.57
2022-12-14T12:06:27.097Z,155.30
2022-12-14T12:09:08.997Z,145.90
2022-12-14T12:11:52.388Z,147.10
2022-12-14T12:14:39.665Z,136.90
2022-12-14T12:17:25.758Z,144.80
2022-12-14T12:20:03.357Z,136.43
2022-12-14T12:22:40.811Z,156.40
2022-12-14T12:25:27.477Z,132.50
2022-12-14T12:28:16.318Z,139.50
2022-12-14T12:30:59.983Z,125.33
2022-12-14T12:33:47.132Z,128.83
2022-12-14T12:36:27.211Z,121.33
2022-12-14T12:39:12.091Z,112.67
2022-12-14T12:42:02.086Z,116.33
2022-12-14T12:44:54.710Z,122.97
2022-12-14T12:47:47.390Z,117.97
2022-12-14T12:50:29.790Z,112.27
2022-12-14T12:53:08.757Z,112.53
2022-12-14T12:55:49.862Z,113.03
2022-12-14T12:58:38.358Z,109.00
2022-12-14T13:01:30.284Z,116.73
2022-12-14T13:04:13.202Z,109.33
2022-12-14T13:06:55.821Z,114.27
2022-12-14T13:09:43.905Z,112.50
2022-12-14T13:12:28.728Z,117.03
2022-12-14T13:15:11.763Z,111.70
2022-12-14T13:17:59.615Z,119.77
2022-12-14T13:20:40.471Z,117.50
2022-12-14T13:23:44.255Z,108.67
2022-12-14T13:26:56.707Z,117.10
2022-12-14T13:29:48.320Z,114.17
2022-12-14T13:32:44.309Z,122.70
2022-12-14T13:35:40.956Z,115.73
2022-12-14T13:38:46.229Z,120.73
2022-12-14T13:41:34.165Z,120.87
2022-12-14T13:44:43.570Z,126.60
2022-12-14T13:47:26.645Z,122.47
2022-12-14T13:50:35.465Z,132.47
2022-12-14T13:53:10.021Z,135.10
2022-12-14T13:55:57.058Z,128.73
2022-12-14T13:58:43.320Z,126.37
2022-12-14T14:01:22.064Z,126.83
2022-12-14T14:04:01.074Z,130.60
2022-12-14T14:06:47.096Z,126.20
2022-12-14T14:10:15.874Z,128.67
2022-12-14T14:12:56.184Z,134.20
2022-12-14T14:16:26.964Z,129.63
2022-12-14T14:19:00.666Z,121.57
2022-12-14T14:22:14.369Z,128.53
2022-12-14T14:25:00.687Z,129.47
2022-12-14T14:27:50.610Z,129.67
2022-12-14T14:30:35.001Z,131.83
2022-12-14T14:33:47.390Z,123.60
2022-12-14T14:36:32.323Z,129.50
2022-12-14T14:39:55.808Z,134.03
2022-12-14T14:42:30.851Z,123.83
2022-12-14T14:45:11.190Z,132.17
2022-12-14T14:47:48.445Z,123.10
2022-12-14T14:50:32.811Z,123.17
2022-12-14T14:53:32.313Z,128.43
2022-12-14T14:56:33.325Z,133.17
2022-12-14T14:59:53.882Z,141.77
2022-12-14T15:02:40.053Z,127.07
2022-12-14T15:05:42.158Z,138.20
2022-12-14T15:08:26.014Z,132.43
2022-12-14T15:11:03.705Z,131.60
2022-12-14T15:13:50.933Z,126.53
2022-12-14T15:16:37.005Z,132.93
2022-12-14T15:19:35.245Z,120.63
2022-12-14T15:22:13.095Z,124.77
2022-12-14T15:24:53.834Z,139.00
2022-12-14T15:27:36.536Z,117.73
2022-12-14T15:30:26.256Z,130.97
2022-12-14T15:33:07.929Z,120.60
2022-12-14T15:35:49.394Z,126.73
2022-12-14T15:38:34.165Z,123.93
2022-12-14T15:41:31.045Z,136.83
2022-12-14T15:44:08.004Z,126.03
2022-12-14T15:46:45.865Z,131.80
2022-12-14T15:49:29.443Z,122.00
2022-12-14T15:52:09.530Z,128.03
2022-12-14T15:54:48.616Z,130.90
2022-12-14T15:57:27.055Z,132.53
2022-12-14T16:00:03.568Z,132.80
2022-12-14T16:02:44.683Z,127.17
2022-12-14T16:05:22.578Z,132.67
2022-12-14T16:08:00.709Z,131.80
2022-12-14T16:10:37.000Z,133.03
2022-12-14T16:13:20.524Z,134.93
2022-12-14T16:15:55.353Z,136.67
2022-12-14T16:18:31.889Z,138.20
2022-12-14T16:21:08.591Z,142.63
2022-12-14T16:23:45.961Z,138.67
2022-12-14T16:26:28.934Z,132.80
2022-12-14T16:29:23.119Z,130.03
2022-12-14T16:32:06.392Z,141.67
2022-12-14T16:34:41.131Z,144.27
2022-12-14T16:37:32.569Z,140.27
2022-12-14T16:40:16.207Z,142.73
2022-12-14T16:42:50.972Z,145.10
2022-12-14T16:46:14.632Z,143.13
2022-12-14T16:48:54.012Z,153.53
2022-12-14T16:52:04.950Z,161.50
2022-12-14T16:54:30.454Z,159.20
2022-12-14T16:57:20.521Z,161.40
2022-12-14T17:00:02.132Z,172.57
2022-12-14T17:02:38.513Z,157.33
2022-12-14T17:05:20.211Z,168.30
2022-12-14T17:07:57.364Z,176.23
2022-12-14T17:10:32.339Z,169.57
2022-12-14T17:13:09.119Z,165.17
2022-12-14T17:16:00.545Z,181.13
2022-12-14T17:18:37.104Z,180.33
2022-12-14T17:21:19.490Z,193.23
2022-12-14T17:23:53.979Z,194.40
2022-12-14T17:26:29.914Z,194.87
2022-12-14T17:29:05.671Z,193.10
2022-12-14T17:31:44.521Z,201.00
2022-12-14T17:34:23.997Z,205.47
2022-12-14T17:36:58.056Z,198.67
2022-12-14T17:39:37.273Z,201.07
2022-12-14T17:42:13.485Z,208.03
2022-12-14T17:44:54.794Z,215.97
2022-12-14T17:47:29.193Z,230.43
2022-12-14T17:50:03.288Z,213.43
2022-12-14T17:52:38.504Z,219.20
2022-12-14T17:55:18.471Z,203.73
2022-12-14T17:57:53.628Z,220.53
2022-12-14T18:00:49.852Z,218.27
2022-12-14T18:03:24.740Z,220.20
2022-12-14T18:05:59.028Z,222.83
2022-12-14T18:08:33.133Z,235.70
2022-12-14T18:11:13.576Z,217.10
2022-12-14T18:13:48.939Z,224.37
2022-12-14T18:16:28.106Z,242.07
2022-12-14T18:19:03.197Z,223.43
2022-12-14T18:21:36.967Z,244.13
2022-12-14T18:24:12.017Z,245.53
2022-12-14T18:26:46.297Z,235.40
2022-12-14T18:29:22.160Z,234.10
2022-12-14T18:31:58.498Z,234.20
2022-12-14T18:34:35.331Z,232.90
2022-12-14T18:37:09.422Z,232.93
2022-12-14T18:39:49.500Z,221.07
2022-12-14T18:42:26.623Z,223.60
2022-12-14T18:45:00.445Z,232.20
2022-12-14T18:47:43.497Z,235.97
2022-12-14T18:50:18.775Z,224.23
2022-12-14T18:52:52.656Z,240.33
2022-12-14T18:55:28.697Z,232.33
2022-12-14T18:58:04.714Z,239.53
2022-12-14T19:00:41.258Z,221.03
2022-12-14T19:03:18.511Z,244.73
2022-12-14T19:05:54.201Z,245.97
2022-12-14T19:08:28.152Z,259.43
2022-12-14T19:11:02.148Z,229.50
2022-12-14T19:13:35.962Z,241.67
2022-12-14T19:16:10.518Z,239.00
2022-12-14T19:18:46.182Z,247.13
2022-12-14T19:21:20.193Z,241.47
2022-12-14T19:23:54.156Z,235.27
2022-12-14T19:26:29.806Z,244.07
2022-12-14T19:29:05.648Z,236.17
2022-12-14T19:31:39.530Z,237.93
2022-12-14T19:34:16.024Z,241.53
2022-12-14T19:36:49.840Z,232.50
2022-12-14T19:39:23.693Z,232.23
2022-12-14T19:42:05.358Z,231.93
2022-12-14T19:44:40.627Z,226.97
2022-12-14T19:47:14.851Z,225.07
2022-12-14T19:49:55.192Z,229.20
2022-12-14T19:52:33.103Z,222.57
2022-12-14T19:55:07.216Z,216.47
2022-12-14T19:57:42.278Z,226.30
2022-12-14T20:00:17.150Z,242.73
2022-12-14T20:02:52.396Z,217.67
2022-12-14T20:05:29.423Z,223.73
2022-12-14T20:08:03.211Z,234.53
2022-12-14T20:10:37.564Z,231.90
2022-12-14T20:13:11.352Z,230.90
2022-12-14T20:15:51.420Z,233.83
2022-12-14T20:18:26.389Z,243.27
2022-12-14T20:21:06.586Z,228.80
2022-12-14T20:23:41.281Z,231.70
2022-12-14T20:26:19.345Z,231.57
2022-12-14T20:28:55.623Z,236.17
2022-12-14T20:31:29.524Z,211.53
2022-12-14T20:34:06.492Z,221.57
2022-12-14T20:36:42.795Z,221.57
2022-12-14T20:39:17.501Z,228.10
2022-12-14T20:41:53.015Z,227.10
2022-12-14T20:44:27.167Z,218.63
2022-12-14T20:47:02.187Z,212.40
2022-12-14T20:49:36.088Z,213.90
2022-12-14T20:52:12.020Z,200.57
2022-12-14T20:54:46.364Z,195.83
2022-12-14T20:57:21.188Z,197.10
2022-12-14T20:59:56.645Z,214.57
2022-12-14T21:02:34.045Z,204.00
2022-12-14T21:05:08.576Z,204.13
2022-12-14T21:07:44.310Z,207.43
2022-12-14T21:10:18.594Z,205.93
2022-12-14T21:12:53.989Z,201.13
2022-12-14T21:15:27.941Z,213.83
2022-12-14T21:18:02.522Z,204.63
2022-12-14T21:20:36.650Z,199.87
2022-12-14T21:23:12.647Z,202.00
2022-12-14T21:25:46.784Z,204.87
2022-12-14T21:28:20.827Z,185.97
2022-12-14T21:30:55.188Z,205.33
2022-12-14T21:33:29.380Z,203.80
2022-12-14T21:36:03.408Z,198.67
2022-12-14T21:38:39.525Z,189.83
2022-12-14T21:41:30.689Z,195.47
2022-12-14T21:44:05.137Z,185.77
2022-12-14T21:46:39.229Z,176.47
2022-12-14T21:49:13.871Z,163.03
2022-12-14T21:51:49.486Z,169.23
2022-12-14T21:54:25.797Z,183.63
2022-12-14T21:57:16.307Z,173.03
2022-12-14T21:59:50.716Z,173.80
2022-12-14T22:02:27.137Z,173.53
2022-12-14T22:05:01.608Z,177.97
2022-12-14T22:07:36.811Z,170.80
2022-12-14T22:10:13.291Z,175.17
2022-12-14T22:12:47.873Z,158.83
2022-12-14T22:15:21.809Z,183.80
2022-12-14T22:17:56.414Z,179.33
2022-12-14T22:20:30.814Z,181.03
2022-12-14T22:23:05.211Z,159.50
2022-12-14T22:25:41.247Z,169.60
2022-12-14T22:28:15.462Z,174.33
2022-12-14T22:30:49.335Z,184.90
2022-12-14T22:33:23.290Z,159.43
2022-12-14T22:35:57.733Z,170.80
2022-12-14T22:38:32.232Z,169.93
2022-12-14T22:41:11.817Z,177.17
2022-12-14T22:43:46.016Z,183.17
2022-12-14T22:46:21.930Z,179.30
2022-12-14T22:48:59.892Z,183.70
2022-12-14T22:51:33.826Z,177.13
2022-12-14T22:54:08.637Z,179.87
2022-12-14T22:56:48.139Z,174.63
2022-12-14T22:59:26.079Z,196.77
2022-12-14T23:02:00.724Z,176.90
2022-12-14T23:04:36.229Z,174.60
2022-12-14T23:07:11.435Z,173.13
2022-12-14T23:10:01.468Z,184.00
2022-12-14T23:12:53.978Z,188.80
2022-12-14T23:15:44.046Z,184.97
2022-12-14T23:18:34.329Z,186.77
2022-12-14T23:21:29.787Z,169.03
2022-12-14T23:24:19.884Z,167.60
2022-12-14T23:27:10.255Z,161.00
2022-12-14T23:30:02.350Z,157.63
2022-12-14T23:32:52.194Z,160.07
2022-12-14T23:35:42.326Z,159.73
2022-12-14T23:38:32.520Z,174.17
2022-12-14T23:41:23.041Z,154.10
2022-12-14T23:44:12.941Z,153.17
2022-12-14T23:47:05.032Z,160.83
2022-12-14T23:49:54.456Z,144.70
2022-12-14T23:52:44.272Z,154.67
2022-12-14T23:55:34.313Z,148.33
2022-12-14T23:58:24.518Z,157.00
